createdAt,value
2018-09-19T00:00:32.572Z,2.25
2018-09-19T00:02:59.617Z,2.10
2018-09-19T00:05:26.647Z,2.15
2018-09-19T00:07:53.720Z,2.02
2018-09-19T00:10:20.884Z,1.25
2018-09-19T00:12:47.926Z,2.55
2018-09-19T00:15:14.944Z,1.95
2018-09-19T00:17:41.995Z,2.33
2018-09-19T00:20:09.066Z,1.72
2018-09-19T00:22:36.062Z,1.95
2018-09-19T00:25:03.153Z,2.50
2018-09-19T00:27:30.287Z,1.77
2018-09-19T00:29:57.320Z,1.70
2018-09-19T00:32:24.399Z,1.47
2018-09-19T00:34:51.424Z,2.75
2018-09-19T00:37:18.552Z,2.10
2018-09-19T00:39:45.604Z,2.05
2018-09-19T00:42:12.643Z,2.02
2018-09-19T00:44:39.684Z,1.62
2018-09-19T00:47:06.788Z,2.08
2018-09-19T00:49:33.923Z,1.45
2018-09-19T00:52:00.944Z,1.70
2018-09-19T00:54:27.974Z,3.37
2018-09-19T00:56:55.023Z,1.65
2018-09-19T00:59:22.069Z,2.08
2018-09-19T01:01:49.115Z,2.17
2018-09-19T01:04:16.160Z,2.70
2018-09-19T01:06:43.194Z,2.75
2018-09-19T01:09:10.293Z,1.47
2018-09-19T01:11:37.733Z,2.50
2018-09-19T01:14:04.889Z,1.50
2018-09-19T01:16:31.926Z,2.17
2018-09-19T01:18:59.087Z,2.05
2018-09-19T01:21:26.179Z,1.20
2018-09-19T01:23:53.229Z,1.60
2018-09-19T01:26:20.243Z,1.95
2018-09-19T01:28:47.364Z,2.17
2018-09-19T01:31:14.423Z,1.52
2018-09-19T01:33:41.578Z,1.40
2018-09-19T01:36:08.969Z,1.52
2018-09-19T01:38:36.040Z,2.55
2018-09-19T01:41:03.066Z,1.40
2018-09-19T01:43:30.112Z,1.80
2018-09-19T01:45:57.423Z,1.75
2018-09-19T01:48:24.539Z,1.60
2018-09-19T01:50:51.606Z,1.75
2018-09-19T01:53:18.648Z,1.30
2018-09-19T01:55:45.676Z,2.55
2018-09-19T01:58:12.714Z,1.27
2018-09-19T02:00:39.755Z,1.30
2018-09-19T02:03:06.799Z,1.37
2018-09-19T02:05:33.836Z,2.40
2018-09-19T02:08:01.035Z,1.20
2018-09-19T02:10:28.046Z,2.50
2018-09-19T02:12:55.764Z,1.40
2018-09-19T02:15:22.806Z,1.70
2018-09-19T02:17:49.935Z,1.45
2018-09-19T02:20:17.226Z,1.65
2018-09-19T02:22:44.299Z,1.85
2018-09-19T02:25:11.794Z,1.67
2018-09-19T02:27:39.053Z,1.37
2018-09-19T02:30:06.328Z,1.22
2018-09-19T02:32:33.403Z,1.45
2018-09-19T02:35:00.430Z,1.67
2018-09-19T02:37:27.496Z,1.55
2018-09-19T02:39:54.518Z,2.20
2018-09-19T02:42:21.571Z,1.62
2018-09-19T02:44:48.598Z,1.60
2018-09-19T02:47:15.704Z,1.50
2018-09-19T02:49:42.869Z,2.05
2018-09-19T02:52:09.915Z,1.80
2018-09-19T02:54:37.368Z,1.15
2018-09-19T02:57:04.576Z,1.60
2018-09-19T02:59:31.542Z,1.10
2018-09-19T03:01:59.175Z,1.95
2018-09-19T03:04:26.235Z,2.20
2018-09-19T03:06:53.283Z,1.37
2018-09-19T03:09:20.346Z,1.07
2018-09-19T03:11:47.402Z,1.50
2018-09-19T03:14:14.699Z,1.77
2018-09-19T03:16:41.745Z,1.32
2018-09-19T03:19:08.849Z,1.82
2018-09-19T03:21:36.004Z,1.65
2018-09-19T03:24:03.053Z,1.57
2018-09-19T03:26:30.164Z,1.67
2018-09-19T03:28:57.222Z,1.52
2018-09-19T03:31:24.405Z,2.72
2018-09-19T03:33:51.539Z,1.52
2018-09-19T03:36:18.592Z,1.85
2018-09-19T03:38:45.686Z,1.90
2018-09-19T03:41:12.709Z,1.87
2018-09-19T03:43:39.825Z,1.40
2018-09-19T03:46:06.979Z,1.45
2018-09-19T03:48:34.082Z,1.00
2018-09-19T03:51:01.104Z,1.60
2018-09-19T03:53:28.136Z,1.40
2018-09-19T03:55:55.168Z,1.10
2018-09-19T03:58:23.236Z,1.52
2018-09-19T04:00:50.176Z,1.45
2018-09-19T04:03:17.193Z,2.22
2018-09-19T04:05:44.263Z,1.22
2018-09-19T04:08:11.378Z,2.05
2018-09-19T04:10:38.405Z,1.37
2018-09-19T04:13:05.712Z,1.10
2018-09-19T04:15:33.475Z,1.80
2018-09-19T04:18:00.582Z,2.33
2018-09-19T04:20:27.637Z,3.08
2018-09-19T04:22:54.698Z,1.92
2018-09-19T04:25:21.751Z,1.30
2018-09-19T04:27:48.874Z,1.60
2018-09-19T04:30:15.938Z,1.57
2018-09-19T04:32:43.238Z,2.22
2018-09-19T04:35:10.262Z,1.10
2018-09-19T04:37:37.400Z,1.55
2018-09-19T04:40:04.420Z,1.80
2018-09-19T04:42:31.458Z,1.47
2018-09-19T04:44:59.095Z,1.55
2018-09-19T04:47:26.166Z,1.20
2018-09-19T04:49:53.480Z,1.70
2018-09-19T04:52:20.906Z,1.45
2018-09-19T04:54:47.919Z,1.70
2018-09-19T04:57:14.966Z,1.72
2018-09-19T04:59:42.053Z,1.35
2018-09-19T05:02:09.101Z,1.25
2018-09-19T05:04:36.406Z,1.75
2018-09-19T05:07:03.592Z,1.45
2018-09-19T05:09:30.711Z,1.60
2018-09-19T05:11:57.785Z,2.00
2018-09-19T05:14:24.827Z,2.17
2018-09-19T05:16:51.866Z,2.10
2018-09-19T05:19:19.030Z,2.25
2018-09-19T05:21:46.040Z,1.40
2018-09-19T05:24:13.117Z,1.80
2018-09-19T05:26:40.163Z,1.45
2018-09-19T05:29:07.398Z,2.30
2018-09-19T05:31:34.716Z,1.98
2018-09-19T05:34:02.039Z,2.05
2018-09-19T05:36:29.182Z,2.08
2018-09-19T05:38:56.410Z,1.45
2018-09-19T05:41:23.497Z,1.90
2018-09-19T05:43:50.546Z,1.80
2018-09-19T05:46:17.634Z,1.82
2018-09-19T05:48:44.705Z,1.60
2018-09-19T05:51:12.258Z,1.98
2018-09-19T05:53:39.321Z,1.20
2018-09-19T05:56:06.355Z,2.15
2018-09-19T05:58:33.485Z,2.27
2018-09-19T06:01:00.736Z,1.45
2018-09-19T06:03:27.860Z,1.15
2018-09-19T06:05:55.155Z,2.72
2018-09-19T06:08:22.713Z,2.27
2018-09-19T06:10:50.816Z,1.55
2018-09-19T06:13:17.865Z,1.80
2018-09-19T06:15:44.924Z,2.00
2018-09-19T06:18:12.023Z,1.62
2018-09-19T06:20:39.485Z,1.98
2018-09-19T06:23:06.760Z,1.45
2018-09-19T06:25:34.777Z,1.37
2018-09-19T06:28:01.928Z,1.85
2018-09-19T06:30:29.056Z,1.90
2018-09-19T06:32:56.180Z,1.90
2018-09-19T06:35:23.286Z,2.83
2018-09-19T06:37:50.395Z,2.02
2018-09-19T06:40:17.437Z,1.82
2018-09-19T06:42:44.533Z,1.30
2018-09-19T06:45:11.589Z,1.52
2018-09-19T06:47:38.722Z,2.05
2018-09-19T06:50:05.762Z,1.05
2018-09-19T06:52:32.881Z,2.05
2018-09-19T06:54:59.823Z,1.70
2018-09-19T06:57:26.908Z,1.85
2018-09-19T06:59:54.037Z,1.90
2018-09-19T07:02:21.011Z,2.40
2018-09-19T07:04:48.283Z,2.45
2018-09-19T07:07:15.404Z,2.50
2018-09-19T07:09:42.551Z,1.52
2018-09-19T07:12:09.598Z,3.00
2018-09-19T07:14:37.220Z,1.60
2018-09-19T07:17:04.922Z,2.10
2018-09-19T07:19:31.939Z,1.70
2018-09-19T07:21:59.047Z,1.85
2018-09-19T07:24:26.403Z,3.08
2018-09-19T07:26:54.280Z,1.50
2018-09-19T07:29:21.332Z,2.58
2018-09-19T07:31:48.376Z,1.75
2018-09-19T07:34:15.425Z,4.42
2018-09-19T07:36:42.467Z,2.00
2018-09-19T07:39:10.651Z,1.47
2018-09-19T07:41:37.707Z,1.85
2018-09-19T07:44:04.772Z,2.58
2018-09-19T07:46:32.130Z,1.87
2018-09-19T07:48:59.875Z,2.10
2018-09-19T07:51:26.911Z,2.45
2018-09-19T07:53:53.961Z,2.27
2018-09-19T07:56:20.988Z,3.10
2018-09-19T07:58:48.058Z,2.55
2018-09-19T08:01:15.294Z,3.10
2018-09-19T08:03:42.306Z,3.45
2018-09-19T08:06:09.339Z,3.62
2018-09-19T08:08:36.541Z,3.77
2018-09-19T08:11:04.249Z,2.77
2018-09-19T08:13:32.137Z,1.82
2018-09-19T08:15:59.222Z,2.83
2018-09-19T08:18:26.824Z,3.52
2018-09-19T08:20:54.048Z,2.40
2018-09-19T08:23:21.113Z,3.02
2018-09-19T08:25:48.334Z,3.45
2018-09-19T08:28:15.635Z,1.95
2018-09-19T08:30:43.298Z,1.87
2018-09-19T08:33:10.347Z,4.50
2018-09-19T08:35:37.382Z,2.22
2018-09-19T08:38:04.461Z,2.47
2018-09-19T08:40:31.509Z,2.00
2018-09-19T08:42:59.212Z,2.15
2018-09-19T08:45:26.672Z,2.58
2018-09-19T08:47:53.774Z,3.92
2018-09-19T08:50:20.829Z,2.92
2018-09-19T08:52:48.068Z,2.05
2018-09-19T08:55:15.260Z,1.90
2018-09-19T08:57:42.401Z,2.58
2018-09-19T09:00:10.580Z,3.20
2018-09-19T09:02:37.997Z,3.20
2018-09-19T09:05:05.225Z,2.10
2018-09-19T09:07:32.302Z,2.47
2018-09-19T09:09:59.335Z,2.55
2018-09-19T09:12:26.390Z,3.33
2018-09-19T09:14:55.021Z,2.70
2018-09-19T09:17:22.156Z,2.80
2018-09-19T09:19:49.207Z,3.47
2018-09-19T09:22:16.248Z,4.03
2018-09-19T09:24:43.535Z,2.45
2018-09-19T09:27:10.674Z,2.55
2018-09-19T09:29:37.747Z,3.33
2018-09-19T09:32:04.831Z,2.90
2018-09-19T09:34:32.023Z,2.85
2018-09-19T09:36:59.650Z,3.10
2018-09-19T09:39:27.107Z,2.87
2018-09-19T09:41:54.122Z,3.45
2018-09-19T09:44:21.370Z,2.98
2018-09-19T09:46:48.445Z,2.95
2018-09-19T09:49:15.599Z,3.25
2018-09-19T09:51:42.747Z,3.05
2018-09-19T09:54:09.803Z,2.05
2018-09-19T09:56:36.827Z,3.30
2018-09-19T09:59:03.976Z,3.35
2018-09-19T10:01:31.136Z,3.92
2018-09-19T10:03:58.201Z,2.45
2018-09-19T10:06:25.266Z,2.98
2018-09-19T10:08:52.353Z,3.55
2018-09-19T10:11:19.733Z,2.62
2018-09-19T10:13:46.878Z,2.85
2018-09-19T10:16:13.874Z,3.20
2018-09-19T10:18:40.944Z,2.08
2018-09-19T10:21:07.998Z,3.92
2018-09-19T10:23:35.306Z,3.80
2018-09-19T10:26:02.336Z,3.62
2018-09-19T10:28:29.462Z,4.08
2018-09-19T10:30:56.507Z,3.60
2018-09-19T10:33:23.564Z,3.20
2018-09-19T10:35:50.616Z,4.90
2018-09-19T10:38:17.789Z,2.75
2018-09-19T10:40:44.938Z,4.00
2018-09-19T10:43:11.973Z,3.70
2018-09-19T10:45:39.919Z,3.77
2018-09-19T10:48:07.092Z,4.28
2018-09-19T10:50:34.142Z,3.35
2018-09-19T10:53:01.214Z,2.77
2018-09-19T10:55:28.302Z,3.33
2018-09-19T10:57:55.439Z,2.55
2018-09-19T11:00:22.512Z,3.40
2018-09-19T11:02:49.554Z,3.30
2018-09-19T11:05:16.600Z,3.60
2018-09-19T11:07:44.018Z,3.27
2018-09-19T11:10:11.193Z,3.87
2018-09-19T11:12:38.239Z,2.70
2018-09-19T11:15:05.479Z,3.45
2018-09-19T11:17:32.643Z,2.12
2018-09-19T11:19:59.682Z,2.67
2018-09-19T11:22:26.712Z,2.42
2018-09-19T11:24:53.877Z,2.30
2018-09-19T11:27:20.999Z,3.02
2018-09-19T11:29:48.044Z,2.83
2018-09-19T11:32:15.081Z,2.60
2018-09-19T11:34:42.102Z,2.72
2018-09-19T11:37:09.190Z,4.12
2018-09-19T11:39:36.233Z,2.22
2018-09-19T11:42:03.321Z,3.72
2018-09-19T11:44:30.386Z,3.10
2018-09-19T11:46:58.061Z,2.50
2018-09-19T11:49:25.091Z,2.52
2018-09-19T11:51:52.137Z,2.80
2018-09-19T11:54:19.176Z,3.42
2018-09-19T11:56:46.295Z,3.02
2018-09-19T11:59:13.488Z,3.22
2018-09-19T12:01:40.631Z,4.58
2018-09-19T12:04:07.681Z,3.00
2018-09-19T12:06:34.788Z,3.08
2018-09-19T12:09:01.922Z,3.47
2018-09-19T12:11:29.225Z,3.77
2018-09-19T12:13:56.258Z,2.90
2018-09-19T12:16:23.380Z,2.87
2018-09-19T12:18:50.529Z,2.65
2018-09-19T12:21:18.039Z,2.65
2018-09-19T12:23:45.058Z,2.50
2018-09-19T12:26:12.102Z,2.87
2018-09-19T12:28:39.202Z,2.20
2018-09-19T12:31:06.214Z,3.37
2018-09-19T12:33:33.584Z,3.35
2018-09-19T12:36:01.165Z,2.85
2018-09-19T12:38:28.357Z,2.80
2018-09-19T12:40:55.382Z,2.95
2018-09-19T12:43:22.525Z,2.65
2018-09-19T12:45:49.566Z,2.35
2018-09-19T12:48:16.829Z,3.20
2018-09-19T12:50:43.973Z,3.05
2018-09-19T12:53:11.330Z,4.83
2018-09-19T12:55:38.335Z,2.35
2018-09-19T12:58:05.371Z,3.00
2018-09-19T13:00:32.429Z,3.33
2018-09-19T13:03:00.272Z,2.42
2018-09-19T13:05:27.315Z,2.67
2018-09-19T13:07:54.420Z,3.60
2018-09-19T13:10:21.877Z,4.10
2018-09-19T13:12:49.024Z,4.30
2018-09-19T13:15:16.171Z,4.75
2018-09-19T13:17:43.286Z,3.55
2018-09-19T13:20:10.725Z,5.12
2018-09-19T13:22:37.781Z,4.87
2018-09-19T13:25:04.853Z,2.95
2018-09-19T13:27:31.979Z,4.28
2018-09-19T13:29:59.126Z,4.30
2018-09-19T13:32:26.200Z,3.72
2018-09-19T13:34:53.257Z,3.90
2018-09-19T13:37:20.374Z,4.12
2018-09-19T13:39:47.422Z,3.02
2018-09-19T13:42:14.498Z,3.50
2018-09-19T13:44:48.137Z,4.60
2018-09-19T13:47:15.237Z,3.58
2018-09-19T13:49:50.587Z,3.87
2018-09-19T13:52:17.642Z,3.55
2018-09-19T13:54:44.782Z,3.27
2018-09-19T13:57:11.951Z,4.55
2018-09-19T13:59:38.986Z,2.80
2018-09-19T14:02:06.035Z,4.00
2018-09-19T14:04:33.645Z,4.15
2018-09-19T14:07:01.241Z,3.65
2018-09-19T14:09:28.302Z,3.95
2018-09-19T14:11:56.174Z,4.47
2018-09-19T14:14:23.257Z,4.67
2018-09-19T14:16:50.300Z,3.17
2018-09-19T14:19:17.496Z,3.80
2018-09-19T14:21:44.528Z,3.42
2018-09-19T14:24:11.603Z,4.08
2018-09-19T14:26:38.697Z,4.25
2018-09-19T14:29:06.033Z,4.30
2018-09-19T14:31:33.401Z,3.75
2018-09-19T14:34:00.426Z,3.42
2018-09-19T14:36:27.502Z,3.33
2018-09-19T14:38:54.585Z,4.45
2018-09-19T14:41:21.689Z,3.55
2018-09-19T14:43:48.689Z,3.83
2018-09-19T14:46:15.791Z,4.22
2018-09-19T14:48:44.086Z,4.42
2018-09-19T14:51:12.467Z,2.45
2018-09-19T14:53:40.115Z,2.92
2018-09-19T14:56:07.292Z,3.70
2018-09-19T14:58:35.092Z,3.92
2018-09-19T15:01:02.133Z,2.90
2018-09-19T15:03:29.172Z,3.65
2018-09-19T15:05:56.220Z,3.15
2018-09-19T15:08:23.302Z,5.62
2018-09-19T15:10:50.354Z,4.20
2018-09-19T15:13:17.502Z,3.27
2018-09-19T15:15:44.549Z,3.30
2018-09-19T15:18:11.692Z,3.52
2018-09-19T15:20:38.870Z,2.47
2018-09-19T15:23:06.017Z,2.20
2018-09-19T15:25:33.136Z,3.20
2018-09-19T15:28:00.187Z,2.08
2018-09-19T15:30:27.268Z,3.05
2018-09-19T15:32:54.442Z,4.83
2018-09-19T15:35:22.475Z,3.83
2018-09-19T15:37:49.647Z,3.80
2018-09-19T15:40:16.669Z,3.17
2018-09-19T15:42:43.817Z,4.22
2018-09-19T15:45:11.772Z,2.87
2018-09-19T15:47:38.935Z,3.22
2018-09-19T15:50:06.027Z,3.30
2018-09-19T15:52:33.092Z,2.55
2018-09-19T15:55:00.216Z,3.15
2018-09-19T15:57:27.433Z,4.25
2018-09-19T15:59:54.618Z,4.65
2018-09-19T16:02:21.661Z,3.40
2018-09-19T16:04:49.700Z,2.92
2018-09-19T16:07:16.846Z,3.62
2018-09-19T16:09:57.843Z,2.95
2018-09-19T16:12:24.888Z,3.75
2018-09-19T16:14:51.949Z,1.92
2018-09-19T16:17:19.027Z,4.00
2018-09-19T16:19:46.964Z,4.92
2018-09-19T16:22:14.073Z,2.87
2018-09-19T16:24:41.167Z,4.05
2018-09-19T16:27:08.416Z,4.60
2018-09-19T16:29:35.467Z,3.20
2018-09-19T16:32:03.326Z,3.50
2018-09-19T16:34:30.745Z,3.47
2018-09-19T16:36:57.852Z,4.12
2018-09-19T16:39:24.897Z,5.92
2018-09-19T16:41:52.008Z,3.90
2018-09-19T16:44:19.101Z,4.47
2018-09-19T16:46:46.147Z,5.22
2018-09-19T16:49:13.278Z,6.85
2018-09-19T16:51:40.870Z,5.53
2018-09-19T16:54:08.019Z,8.43
2018-09-19T16:56:35.049Z,6.10
2018-09-19T16:59:02.210Z,7.72
2018-09-19T17:01:29.541Z,5.17
2018-09-19T17:03:56.878Z,6.67
2018-09-19T17:06:23.965Z,6.42
2018-09-19T17:08:51.264Z,5.95
2018-09-19T17:11:18.806Z,6.08
2018-09-19T17:13:46.377Z,5.83
2018-09-19T17:16:13.614Z,4.70
2018-09-19T17:18:40.799Z,4.85
2018-09-19T17:21:07.904Z,4.78
2018-09-19T17:23:34.960Z,4.90
2018-09-19T17:26:02.088Z,3.80
2018-09-19T17:28:29.429Z,4.80
2018-09-19T17:30:56.579Z,4.62
2018-09-19T17:33:23.647Z,4.92
2018-09-19T17:35:50.690Z,5.15
2018-09-19T17:38:17.919Z,5.22
2018-09-19T17:40:44.950Z,4.50
2018-09-19T17:43:12.424Z,4.55
2018-09-19T17:45:39.691Z,5.00
2018-09-19T17:48:06.820Z,4.33
2018-09-19T17:50:33.866Z,5.20
2018-09-19T17:53:01.009Z,4.10
2018-09-19T17:55:28.173Z,3.60
2018-09-19T17:57:55.414Z,4.60
2018-09-19T18:00:23.210Z,3.77
2018-09-19T18:02:50.327Z,3.50
2018-09-19T18:05:17.346Z,3.60
2018-09-19T18:07:44.406Z,2.80
2018-09-19T18:10:11.555Z,3.02
2018-09-19T18:12:38.954Z,3.85
2018-09-19T18:15:06.083Z,5.08
2018-09-19T18:17:33.204Z,3.15
2018-09-19T18:20:00.364Z,3.42
2018-09-19T18:22:27.398Z,3.27
2018-09-19T18:24:54.442Z,3.27
2018-09-19T18:27:21.584Z,3.22
2018-09-19T18:29:48.635Z,4.22
2018-09-19T18:32:15.956Z,4.28
2018-09-19T18:34:43.180Z,4.05
2018-09-19T18:37:10.403Z,4.33
2018-09-19T18:39:37.453Z,3.95
2018-09-19T18:42:04.904Z,4.45
2018-09-19T18:44:32.053Z,2.72
2018-09-19T18:46:59.113Z,4.03
2018-09-19T18:49:27.145Z,4.03
2018-09-19T18:51:54.317Z,3.00
2018-09-19T18:54:22.565Z,4.15
2018-09-19T18:56:50.091Z,2.58
2018-09-19T18:59:17.305Z,3.20
2018-09-19T19:01:44.481Z,3.08
2018-09-19T19:04:11.825Z,3.25
2018-09-19T19:06:38.866Z,2.62
2018-09-19T19:09:07.792Z,3.27
2018-09-19T19:11:34.849Z,3.15
2018-09-19T19:14:01.893Z,3.33
2018-09-19T19:16:28.952Z,4.67
2018-09-19T19:18:56.258Z,3.25
2018-09-19T19:21:23.669Z,3.95
2018-09-19T19:23:51.696Z,3.37
2018-09-19T19:26:18.740Z,3.08
2018-09-19T19:28:45.876Z,3.22
2018-09-19T19:31:12.920Z,3.00
2018-09-19T19:33:39.993Z,2.85
2018-09-19T19:36:07.336Z,3.70
2018-09-19T19:38:34.420Z,4.20
2018-09-19T19:41:01.695Z,3.35
2018-09-19T19:43:28.839Z,3.50
2018-09-19T19:45:55.886Z,2.90
2018-09-19T19:48:23.046Z,3.95
2018-09-19T19:50:50.179Z,2.87
2018-09-19T19:53:17.291Z,3.20
2018-09-19T19:55:44.251Z,2.77
2018-09-19T19:58:11.511Z,3.90
2018-09-19T20:00:38.989Z,2.72
2018-09-19T20:03:06.110Z,2.85
2018-09-19T20:05:33.189Z,2.60
2018-09-19T20:08:00.327Z,2.72
2018-09-19T20:10:27.484Z,3.10
2018-09-19T20:12:54.925Z,3.40
2018-09-19T20:15:21.972Z,3.52
2018-09-19T20:17:49.106Z,2.67
2018-09-19T20:20:16.162Z,3.00
2018-09-19T20:22:43.257Z,2.30
2018-09-19T20:25:10.307Z,2.67
2018-09-19T20:27:37.613Z,3.60
2018-09-19T20:30:05.061Z,3.83
2018-09-19T20:32:32.094Z,3.20
2018-09-19T20:34:59.516Z,3.22
2018-09-19T20:37:26.614Z,2.05
2018-09-19T20:39:53.676Z,2.85
2018-09-19T20:42:21.210Z,2.55
2018-09-19T20:44:48.469Z,3.22
2018-09-19T20:47:15.619Z,2.85
2018-09-19T20:49:42.697Z,2.75
2018-09-19T20:52:09.778Z,3.10
2018-09-19T20:54:37.472Z,3.05
2018-09-19T20:57:04.637Z,4.20
2018-09-19T20:59:33.089Z,2.98
2018-09-19T21:02:00.127Z,2.92
2018-09-19T21:04:27.205Z,2.35
2018-09-19T21:06:54.229Z,2.70
2018-09-19T21:09:21.274Z,2.67
2018-09-19T21:11:48.434Z,2.15
2018-09-19T21:14:15.603Z,4.25
2018-09-19T21:16:42.648Z,3.00
2018-09-19T21:19:09.879Z,2.92
2018-09-19T21:21:37.053Z,2.85
2018-09-19T21:24:04.076Z,3.50
2018-09-19T21:26:31.127Z,3.33
2018-09-19T21:28:58.245Z,2.77
2018-09-19T21:31:25.280Z,3.05
2018-09-19T21:33:52.359Z,3.17
2018-09-19T21:36:19.409Z,2.58
2018-09-19T21:38:46.726Z,2.87
2018-09-19T21:41:13.771Z,2.60
2018-09-19T21:43:40.798Z,2.65
2018-09-19T21:46:07.897Z,2.83
2018-09-19T21:48:35.065Z,2.83
2018-09-19T21:51:02.069Z,1.80
2018-09-19T21:53:29.095Z,3.05
2018-09-19T21:55:56.168Z,2.83
2018-09-19T21:58:23.296Z,1.95
2018-09-19T22:00:55.909Z,2.95
2018-09-19T22:03:22.955Z,2.75
2018-09-19T22:05:50.242Z,3.75
2018-09-19T22:08:17.459Z,2.70
2018-09-19T22:10:44.505Z,3.15
2018-09-19T22:13:11.652Z,3.42
2018-09-19T22:15:38.669Z,2.47
2018-09-19T22:18:05.816Z,3.15
2018-09-19T22:20:32.850Z,3.60
2018-09-19T22:22:59.937Z,2.12
2018-09-19T22:25:26.985Z,2.70
2018-09-19T22:27:54.122Z,2.47
2018-09-19T22:30:21.188Z,3.00
2018-09-19T22:32:48.275Z,3.85
2018-09-19T22:35:15.481Z,2.92
2018-09-19T22:37:42.601Z,3.35
2018-09-19T22:40:09.631Z,2.98
2018-09-19T22:42:36.654Z,3.47
2018-09-19T22:45:03.793Z,3.90
2018-09-19T22:47:31.563Z,3.25
2018-09-19T22:49:58.720Z,3.08
2018-09-19T22:52:25.748Z,3.62
2018-09-19T22:54:52.788Z,4.05
2018-09-19T22:57:20.591Z,2.25
2018-09-19T22:59:47.636Z,2.85
2018-09-19T23:02:14.675Z,2.80
2018-09-19T23:04:41.721Z,3.05
2018-09-19T23:07:08.784Z,2.85
2018-09-19T23:09:35.818Z,2.30
2018-09-19T23:12:02.862Z,3.80
2018-09-19T23:14:29.890Z,1.95
2018-09-19T23:16:56.997Z,3.85
2018-09-19T23:19:24.147Z,3.22
2018-09-19T23:21:51.169Z,2.22
2018-09-19T23:24:18.218Z,2.55
2018-09-19T23:26:45.591Z,3.25
2018-09-19T23:29:12.717Z,3.00
2018-09-19T23:31:39.764Z,2.47
2018-09-19T23:34:06.798Z,2.72
2018-09-19T23:36:33.825Z,2.60
2018-09-19T23:39:00.870Z,3.33
2018-09-19T23:41:27.969Z,2.50
2018-09-19T23:43:55.055Z,3.17
2018-09-19T23:46:22.061Z,3.45
2018-09-19T23:48:49.193Z,3.22
2018-09-19T23:51:16.256Z,1.87
2018-09-19T23:53:43.291Z,3.42
2018-09-19T23:56:10.338Z,2.80
2018-09-19T23:58:37.603Z,3.58
